Time;durP1;ratioP1;P1;durP2;ratioP2;P2;SDS_P1;SDS_P2;PMS_P1;PMS_P2;Temp;Humidity;BMP_temperature;BMP_pressure;BME280_temperature;BME280_humidity;BME280_pressure;Samples;Min_cycle;Max_cycle;Signal;HPM_P1;HPM_P2
2022/07/20 00:00:08;;;;;;;5.30;1.73;;;;;;;16.08;58.68;99005.31;4975174;28;20050;-64
2022/07/20 00:02:36;;;;;;;3.17;1.15;;;;;;;16.02;58.58;99003.25;4975201;28;20142;-69
2022/07/20 00:05:04;;;;;;;4.47;1.70;;;;;;;15.99;58.75;99001.97;4989982;28;20055;-67
2022/07/20 00:07:32;;;;;;;4.65;1.48;;;;;;;15.95;58.52;98998.34;4994351;28;20056;-67
2022/07/20 00:12:45;;;;;;;4.65;1.77;;;;;;;15.92;58.75;99004.72;4994440;28;20049;-66
2022/07/20 00:15:12;;;;;;;35.80;8.85;;;;;;;15.90;58.62;98995.84;4994427;28;20046;-68
2022/07/20 00:17:39;;;;;;;4.68;2.67;;;;;;;15.89;58.78;98993.44;4994372;28;20060;-68
2022/07/20 00:20:09;;;;;;;5.68;1.42;;;;;;;15.87;58.57;98985.41;4994490;28;20512;-67
2022/07/20 00:22:39;;;;;;;2.15;1.25;;;;;;;15.88;58.69;98995.44;4994280;28;20050;-68
2022/07/20 00:25:06;;;;;;;2.80;1.53;;;;;;;15.85;58.15;98990.59;4994393;28;20165;-68
2022/07/20 00:27:33;;;;;;;2.33;1.30;;;;;;;15.81;58.54;98984.13;4994165;28;20050;-68
2022/07/20 00:30:00;;;;;;;3.70;1.30;;;;;;;15.83;58.27;98989.34;4993887;28;20156;-67
2022/07/20 00:32:27;;;;;;;4.32;1.40;;;;;;;15.76;58.21;98984.47;4994141;28;20146;-68
2022/07/20 00:34:54;;;;;;;3.70;1.63;;;;;;;15.75;58.51;98982.03;4983175;28;20059;-68
2022/07/20 00:37:21;;;;;;;4.80;1.70;;;;;;;15.69;58.85;98977.97;4974362;28;20046;-68
2022/07/20 00:39:48;;;;;;;3.10;1.27;;;;;;;15.68;58.89;98971.53;4974281;28;20055;-68
2022/07/20 00:42:15;;;;;;;7.18;1.50;;;;;;;15.67;58.88;98980.31;4974307;28;20081;-68
2022/07/20 00:44:42;;;;;;;3.20;1.40;;;;;;;15.66;59.01;98978.72;4974419;28;20054;-69
2022/07/20 00:47:09;;;;;;;3.88;1.27;;;;;;;15.61;59.16;98963.03;4974519;28;20510;-69
2022/07/20 00:49:35;;;;;;;2.72;1.33;;;;;;;15.58;59.10;98963.78;4974651;28;20057;-67
2022/07/20 00:52:02;;;;;;;5.95;1.65;;;;;;;15.61;58.74;98965.84;4974412;28;20565;-68
2022/07/20 00:54:29;;;;;;;3.17;1.48;;;;;;;15.61;58.87;98971.44;4974167;28;20050;-68
2022/07/20 00:56:56;;;;;;;81.35;24.25;;;;;;;15.61;59.14;98959.41;4974334;28;20529;-68
2022/07/20 00:59:23;;;;;;;4.60;2.25;;;;;;;15.59;59.32;98953.38;4974144;28;20137;-68
2022/07/20 01:01:50;;;;;;;3.90;1.70;;;;;;;15.57;59.22;98942.53;4973752;28;20046;-67
2022/07/20 01:04:18;;;;;;;3.58;1.42;;;;;;;15.55;58.90;98947.72;4974170;28;20066;-68
2022/07/20 01:06:45;;;;;;;2.38;1.33;;;;;;;15.56;58.88;98948.53;4975023;28;20058;-68
2022/07/20 01:09:12;;;;;;;6.15;1.60;;;;;;;15.53;59.26;98946.47;4974191;28;20053;-64
2022/07/20 01:11:39;;;;;;;4.93;1.50;;;;;;;15.51;59.27;98938.44;4974402;28;20094;-64
2022/07/20 01:14:08;;;;;;;6.28;1.30;;;;;;;15.51;59.32;98937.66;4974021;28;20086;-65
2022/07/20 01:16:36;;;;;;;3.93;1.57;;;;;;;15.46;59.66;98929.56;4974065;28;20066;-63
2022/07/20 01:19:05;;;;;;;3.15;1.20;;;;;;;15.44;59.55;98924.34;4974048;28;20050;-66
2022/07/20 01:21:39;;;;;;;3.80;1.70;;;;;;;15.43;59.32;98928.34;4974170;28;20051;-66
2022/07/20 01:24:11;;;;;;;4.50;1.48;;;;;;;15.41;59.81;98930.72;4973825;28;20403;-67
2022/07/20 01:26:43;;;;;;;5.55;1.50;;;;;;;15.37;60.12;98926.22;4974259;28;20047;-67
2022/07/20 01:29:11;;;;;;;5.50;1.52;;;;;;;15.34;60.03;98927.75;4973577;28;20518;-67
2022/07/20 01:31:38;;;;;;;5.07;1.88;;;;;;;15.31;60.03;98928.50;4973674;28;20141;-68
2022/07/20 01:34:06;;;;;;;3.25;1.48;;;;;;;15.30;60.33;98926.09;4973771;28;20054;-67
2022/07/20 01:36:33;;;;;;;3.85;2.10;;;;;;;15.31;59.98;98924.91;4973889;28;20054;-68
2022/07/20 01:39:00;;;;;;;3.90;1.65;;;;;;;15.30;60.22;98904.47;4973761;28;20528;-68
2022/07/20 01:41:27;;;;;;;6.55;1.70;;;;;;;15.30;60.21;98904.47;4973765;28;20117;-68
2022/07/20 01:43:54;;;;;;;3.92;1.40;;;;;;;15.30;60.44;98926.09;4956065;28;20055;-68
2022/07/20 01:46:21;;;;;;;6.32;2.00;;;;;;;15.24;60.43;98922.81;4972194;28;20424;-66
2022/07/20 01:48:48;;;;;;;2.97;1.50;;;;;;;15.23;60.38;98912.81;4974319;28;20504;-67
2022/07/20 01:51:16;;;;;;;5.18;1.60;;;;;;;15.23;60.71;98915.59;4977401;28;20109;-67
2022/07/20 01:53:43;;;;;;;3.63;1.73;;;;;;;15.23;60.91;98914.78;4977642;28;20509;-67
2022/07/20 01:56:10;;;;;;;4.70;1.40;;;;;;;15.22;60.80;98908.38;4977623;28;20069;-68
2022/07/20 01:58:36;;;;;;;5.28;1.35;;;;;;;15.25;60.86;98890.00;4977833;28;20063;-68
2022/07/20 02:01:03;;;;;;;6.18;1.60;;;;;;;15.37;60.37;98892.56;4976894;28;20093;-68
2022/07/20 02:03:30;;;;;;;4.93;1.60;;;;;;;15.40;60.32;98878.66;4976189;28;20046;-68
2022/07/20 02:05:57;;;;;;;5.80;1.30;;;;;;;15.50;60.11;98874.34;4977284;28;20058;-68
2022/07/20 02:08:25;;;;;;;2.13;1.40;;;;;;;15.58;59.86;98867.66;4977435;28;20401;-67
2022/07/20 02:10:52;;;;;;;8.15;1.77;;;;;;;15.65;59.88;98871.34;4977365;28;20060;-67
2022/07/20 02:13:19;;;;;;;2.20;1.40;;;;;;;15.70;59.75;98873.81;4977280;28;20508;-67
2022/07/20 02:18:31;;;;;;;4.18;1.60;;;;;;;15.84;59.29;98867.56;4976947;28;20081;-68
2022/07/20 02:20:58;;;;;;;2.80;1.30;;;;;;;15.85;59.58;98861.56;4975546;28;20065;-67
2022/07/20 02:23:25;;;;;;;3.45;1.70;;;;;;;15.94;59.16;98861.25;4976989;28;20050;-66
2022/07/20 02:25:52;;;;;;;5.13;1.23;;;;;;;15.95;59.46;98862.84;4977052;28;20137;-67
2022/07/20 02:28:19;;;;;;;5.03;1.70;;;;;;;15.98;59.47;98857.28;4976993;28;20055;-67
2022/07/20 02:30:46;;;;;;;2.50;1.20;;;;;;;16.05;59.30;98865.78;4976613;28;20069;-64
2022/07/20 02:33:13;;;;;;;3.80;1.20;;;;;;;16.12;59.26;98860.25;4976808;28;20046;-63
2022/07/20 02:35:40;;;;;;;3.35;1.70;;;;;;;16.17;58.82;98851.47;4976641;28;20395;-65
2022/07/20 02:38:07;;;;;;;7.80;1.40;;;;;;;16.20;59.00;98847.88;4976829;28;20502;-63
2022/07/20 02:40:34;;;;;;;2.30;1.27;;;;;;;16.17;59.05;98843.03;4975561;28;20097;-63
2022/07/20 02:43:01;;;;;;;2.13;1.27;;;;;;;16.17;59.19;98831.03;4976719;28;20416;-66
2022/07/20 02:45:28;;;;;;;2.35;1.60;;;;;;;16.18;59.60;98838.25;4975052;28;20141;-63
2022/07/20 02:48:02;;;;;;;2.83;1.30;;;;;;;16.20;59.09;98831.06;4976722;28;20073;-65
2022/07/20 02:50:36;;;;;;;2.83;1.20;;;;;;;16.24;59.49;98822.66;4976379;28;20050;-65
2022/07/20 02:53:05;;;;;;;6.40;1.55;;;;;;;16.26;59.27;98826.69;4976870;28;20057;-64
2022/07/20 02:55:32;;;;;;;3.47;1.17;;;;;;;16.32;59.29;98821.53;4976486;28;20051;-63
2022/07/20 02:57:59;;;;;;;4.10;1.50;;;;;;;16.39;59.42;98815.97;4976755;28;20054;-64
2022/07/20 03:00:26;;;;;;;3.85;1.50;;;;;;;16.49;59.29;98808.88;4976194;28;20505;-67
2022/07/20 03:02:53;;;;;;;4.85;1.60;;;;;;;16.51;59.10;98806.47;4976518;28;20051;-63
2022/07/20 03:05:21;;;;;;;1.85;1.23;;;;;;;16.52;59.38;98803.28;4976117;28;20050;-64
2022/07/20 03:07:48;;;;;;;4.57;1.30;;;;;;;16.50;59.69;98804.88;4976320;28;20061;-64
2022/07/20 03:10:15;;;;;;;2.60;1.10;;;;;;;16.51;59.64;98796.06;4976204;28;20403;-63
2022/07/20 03:12:42;;;;;;;2.42;1.25;;;;;;;16.54;59.57;98791.66;4976328;28;20053;-63
2022/07/20 03:15:10;;;;;;;3.63;1.30;;;;;;;16.56;59.67;98792.06;4975875;28;20059;-64
2022/07/20 03:17:42;;;;;;;1.52;1.00;;;;;;;16.64;59.71;98786.09;4975904;28;20101;-63
2022/07/20 03:20:11;;;;;;;2.42;1.40;;;;;;;16.68;59.53;98789.75;4976008;28;20553;-63
2022/07/20 03:22:40;;;;;;;2.63;1.30;;;;;;;16.72;59.63;98792.59;4975919;28;20039;-63
2022/07/20 03:25:08;;;;;;;10.80;1.33;;;;;;;16.74;59.41;98796.63;4974346;28;20298;-64
2022/07/20 03:27:35;;;;;;;4.88;1.27;;;;;;;16.71;59.88;98790.97;4975933;28;20101;-64
2022/07/20 03:30:04;;;;;;;3.47;1.45;;;;;;;16.78;59.72;98796.66;4975525;28;20146;-64
2022/07/20 03:32:31;;;;;;;3.28;1.40;;;;;;;16.77;59.61;98797.84;4974676;28;20077;-64
2022/07/20 03:34:59;;;;;;;2.50;1.50;;;;;;;16.80;59.90;98797.06;4975734;28;20494;-65
2022/07/20 03:37:26;;;;;;;2.63;1.33;;;;;;;16.74;60.18;98790.19;4975757;28;20047;-64
2022/07/20 03:39:53;;;;;;;2.80;1.30;;;;;;;16.75;59.90;98794.63;4974452;28;20055;-63
2022/07/20 03:42:20;;;;;;;2.55;1.50;;;;;;;16.68;60.32;98794.56;4975656;28;20047;-63
2022/07/20 03:44:47;;;;;;;3.38;1.60;;;;;;;16.61;60.42;98781.28;4975593;28;20058;-64
2022/07/20 03:47:14;;;;;;;2.03;1.30;;;;;;;16.55;60.96;98784.84;4975641;28;20047;-63
2022/07/20 03:49:40;;;;;;;2.45;1.42;;;;;;;16.52;61.18;98785.63;4975528;28;20164;-64
2022/07/20 03:52:08;;;;;;;2.58;1.52;;;;;;;16.51;61.08;98779.22;4975408;28;20055;-64
2022/07/20 03:54:37;;;;;;;6.40;1.77;;;;;;;16.51;61.44;98784.81;4975306;28;20137;-64
2022/07/20 03:57:04;;;;;;;2.22;1.50;;;;;;;16.46;61.59;98781.59;4975948;28;20055;-64
2022/07/20 03:59:33;;;;;;;3.47;1.33;;;;;;;16.39;62.20;98782.28;4975361;28;20101;-64
2022/07/20 04:02:00;;;;;;;2.40;1.45;;;;;;;16.34;61.86;98777.03;4975118;28;20082;-64
2022/07/20 04:04:28;;;;;;;8.68;1.60;;;;;;;16.35;62.35;98776.66;4973630;28;20051;-63
2022/07/20 04:06:55;;;;;;;4.85;2.28;;;;;;;16.37;62.58;98774.25;4974900;28;20540;-63
2022/07/20 04:12:10;;;;;;;3.88;1.77;;;;;;;16.28;63.23;98759.75;4974205;28;20057;-64
2022/07/20 04:14:37;;;;;;;2.67;1.50;;;;;;;16.21;63.42;98759.72;4975018;28;20055;-64
2022/07/20 04:17:04;;;;;;;8.80;1.50;;;;;;;16.16;64.00;98757.25;4975070;28;20415;-63
2022/07/20 04:19:31;;;;;;;9.32;1.75;;;;;;;16.12;63.99;98752.81;4974982;28;20529;-64
2022/07/20 04:22:01;;;;;;;3.67;1.60;;;;;;;16.13;64.40;98758.03;4975464;28;20498;-64
2022/07/20 04:24:28;;;;;;;4.28;2.42;;;;;;;16.08;64.58;98754.78;4974860;28;20057;-63
2022/07/20 04:26:55;;;;;;;5.68;2.47;;;;;;;16.05;64.70;98749.97;4975080;28;20054;-63
2022/07/20 04:29:22;;;;;;;4.65;1.90;;;;;;;16.01;65.52;98744.31;4974337;28;20062;-64
2022/07/20 04:31:50;;;;;;;7.07;1.90;;;;;;;16.02;65.50;98745.91;4974832;28;20161;-72
2022/07/20 04:34:17;;;;;;;4.13;1.67;;;;;;;16.04;65.83;98743.53;4974716;28;20510;-72
2022/07/20 04:36:44;;;;;;;8.30;1.77;;;;;;;16.11;65.97;98731.56;4974423;28;20138;-71
2022/07/20 04:39:11;;;;;;;4.35;1.50;;;;;;;16.12;65.93;98727.56;4974510;28;20058;-70
2022/07/20 04:41:39;;;;;;;4.80;1.80;;;;;;;16.19;66.12;98727.59;4974900;28;20051;-72
2022/07/20 04:44:06;;;;;;;2.50;1.58;;;;;;;16.24;66.02;98716.84;4974328;28;20047;-72
2022/07/20 04:46:34;;;;;;;4.20;1.60;;;;;;;16.30;66.11;98708.84;4974576;28;20042;-68
2022/07/20 04:49:01;;;;;;;5.03;1.63;;;;;;;16.34;65.83;98702.06;4974221;28;20055;-68
2022/07/20 04:51:28;;;;;;;8.98;1.70;;;;;;;16.38;66.07;98697.25;4974841;28;20074;-67
2022/07/20 04:54:03;;;;;;;4.93;1.65;;;;;;;16.32;66.13;98687.59;4974333;28;20449;-67
2022/07/20 04:56:30;;;;;;;3.17;1.42;;;;;;;16.21;66.66;98700.78;4974511;28;20050;-68
2022/07/20 04:58:57;;;;;;;3.88;1.42;;;;;;;16.14;66.79;98705.53;4974125;28;20055;-67
2022/07/20 05:01:25;;;;;;;6.13;1.95;;;;;;;16.12;66.80;98700.31;4974008;28;20046;-67
2022/07/20 05:03:52;;;;;;;2.95;1.70;;;;;;;16.13;67.09;98710.34;4974135;28;20046;-67
2022/07/20 05:06:20;;;;;;;7.10;1.85;;;;;;;16.16;67.16;98715.16;4974288;28;20086;-65
2022/07/20 05:08:47;;;;;;;5.25;1.85;;;;;;;16.20;67.35;98718.00;4974333;28;20478;-67
2022/07/20 05:11:14;;;;;;;3.15;2.08;;;;;;;16.19;67.35;98711.59;4974150;28;20078;-64
2022/07/20 05:13:41;;;;;;;4.60;1.90;;;;;;;16.21;67.16;98716.81;4974750;28;20046;-64
2022/07/20 05:16:09;;;;;;;7.93;2.00;;;;;;;16.21;67.58;98706.41;4974057;28;20058;-64
2022/07/20 05:18:37;;;;;;;4.43;2.10;;;;;;;16.13;67.77;98718.75;4974088;28;20468;-63
2022/07/20 05:21:04;;;;;;;6.45;2.22;;;;;;;16.09;67.97;98712.31;4973742;28;20047;-64
2022/07/20 05:23:31;;;;;;;8.65;2.35;;;;;;;16.06;68.48;98718.72;4973456;28;20047;-64
2022/07/20 05:25:58;;;;;;;3.60;2.00;;;;;;;16.08;68.64;98709.91;4973902;28;20529;-64
2022/07/20 05:28:25;;;;;;;4.03;2.30;;;;;;;16.08;68.61;98716.28;4973907;28;20150;-64
2022/07/20 05:30:52;;;;;;;5.05;1.98;;;;;;;16.04;69.11;98695.84;4973498;28;20077;-64
2022/07/20 05:33:20;;;;;;;5.22;1.98;;;;;;;16.05;68.99;98694.63;4973473;28;20085;-64
2022/07/20 05:35:49;;;;;;;3.80;1.67;;;;;;;16.10;69.17;98680.25;4973546;28;20509;-65
2022/07/20 05:38:17;;;;;;;5.15;1.90;;;;;;;16.04;69.46;98673.38;4974131;28;20150;-64
2022/07/20 05:40:45;;;;;;;4.57;2.00;;;;;;;15.78;69.86;98670.78;4973715;28;20501;-67
2022/07/20 05:43:12;;;;;;;4.07;2.20;;;;;;;15.65;70.28;98660.25;4973771;28;20043;-67
2022/07/20 05:45:39;;;;;;;4.45;1.92;;;;;;;15.68;70.20;98657.47;4973293;28;20050;-67
2022/07/20 05:48:12;;;;;;;10.90;1.90;;;;;;;15.69;70.43;98653.47;4973476;28;20071;-67
2022/07/20 05:50:40;;;;;;;6.75;1.90;;;;;;;15.74;70.31;98641.09;4973481;28;20053;-68
2022/07/20 05:53:08;;;;;;;2.50;1.70;;;;;;;15.75;70.64;98649.13;4973771;28;20161;-67
2022/07/20 05:55:36;;;;;;;4.05;1.88;;;;;;;15.80;70.52;98631.13;4973696;28;20502;-68
2022/07/20 05:58:04;;;;;;;7.53;1.92;;;;;;;15.88;70.59;98633.59;4974473;28;20055;-68
2022/07/20 06:00:32;;;;;;;5.70;1.67;;;;;;;15.96;70.40;98629.63;4973200;28;20051;-67
2022/07/20 06:03:03;;;;;;;4.55;1.92;;;;;;;16.00;70.57;98619.28;4973365;28;20065;-68
2022/07/20 06:05:30;;;;;;;2.88;1.80;;;;;;;16.06;70.33;98600.88;4973590;28;20054;-67
2022/07/20 06:08:01;;;;;;;3.95;1.60;;;;;;;15.98;70.26;98604.00;4973722;28;20063;-67
2022/07/20 06:10:30;;;;;;;4.00;2.00;;;;;;;15.88;70.80;98596.34;4973599;28;20051;-68
2022/07/20 06:12:58;;;;;;;3.03;1.63;;;;;;;15.88;71.01;98597.16;4973702;28;20050;-68
2022/07/20 06:15:28;;;;;;;3.83;1.50;;;;;;;15.91;70.81;98595.56;4973522;28;20087;-69
2022/07/20 06:17:56;;;;;;;5.20;1.73;;;;;;;15.98;71.06;98582.38;4973593;28;20465;-67
2022/07/20 06:20:23;;;;;;;2.40;1.58;;;;;;;16.06;70.87;98578.44;4972321;28;20042;-68
2022/07/20 06:22:51;;;;;;;2.20;1.20;;;;;;;16.17;70.54;98576.47;4973382;28;20047;-69
2022/07/20 06:25:18;;;;;;;3.10;1.40;;;;;;;16.25;70.65;98568.88;4971999;28;20058;-69
2022/07/20 06:27:45;;;;;;;3.10;1.90;;;;;;;16.31;70.23;98568.13;4973667;28;20043;-69
2022/07/20 06:30:13;;;;;;;2.92;1.25;;;;;;;16.35;70.29;98568.16;4972917;28;20538;-68
2022/07/20 06:32:40;;;;;;;2.75;1.60;;;;;;;16.37;70.11;98576.97;4972973;28;20049;-68
2022/07/20 06:35:08;;;;;;;5.97;1.48;;;;;;;16.43;70.26;98570.59;4974145;28;20481;-68
2022/07/20 06:37:36;;;;;;;4.53;1.40;;;;;;;16.44;70.32;98577.81;4976758;28;20054;-67
2022/07/20 06:40:05;;;;;;;1.77;1.15;;;;;;;16.53;70.11;98574.66;4976984;28;20461;-68
2022/07/20 06:42:32;;;;;;;7.85;1.45;;;;;;;16.72;69.76;98576.34;4976909;28;20053;-68
2022/07/20 06:44:59;;;;;;;3.97;1.60;;;;;;;16.94;69.16;98561.13;4976589;28;20052;-67
2022/07/20 06:47:25;;;;;;;3.17;1.17;;;;;;;17.17;68.62;98570.03;4976624;28;20105;-68
2022/07/20 06:49:52;;;;;;;5.20;1.77;;;;;;;17.25;68.09;98568.81;4976630;28;20055;-68
2022/07/20 06:52:27;;;;;;;5.10;1.45;;;;;;;17.27;68.21;98569.22;4976676;28;20105;-68
2022/07/20 06:54:54;;;;;;;3.47;1.75;;;;;;;17.16;68.15;98571.19;4976710;28;20401;-65
2022/07/20 06:57:21;;;;;;;4.72;1.63;;;;;;;17.05;68.23;98574.00;4976631;28;20141;-65
2022/07/20 06:59:49;;;;;;;2.88;1.27;;;;;;;17.02;68.53;98563.56;4976795;28;20047;-64
2022/07/20 07:02:16;;;;;;;4.00;1.20;;;;;;;17.09;68.05;98568.41;4976291;28;20534;-64
2022/07/20 07:04:43;;;;;;;2.47;1.20;;;;;;;17.24;67.67;98562.41;4976409;28;20146;-64
2022/07/20 07:07:10;;;;;;;5.18;1.30;;;;;;;17.42;67.27;98566.03;4975886;28;20506;-65
2022/07/20 07:09:37;;;;;;;2.55;1.10;;;;;;;17.59;66.67;98553.19;4975117;28;20129;-65
2022/07/20 07:12:08;;;;;;;8.38;1.45;;;;;;;17.69;66.16;98552.38;4975774;28;20078;-64
2022/07/20 07:14:35;;;;;;;5.18;1.55;;;;;;;18.24;64.79;98550.66;4975552;28;20043;-64
2022/07/20 07:17:02;;;;;;;2.53;1.23;;;;;;;18.64;63.77;98547.28;4975624;28;20528;-64
2022/07/20 07:19:29;;;;;;;13.35;1.85;;;;;;;18.83;63.44;98543.94;4974665;28;20043;-64
2022/07/20 07:21:56;;;;;;;4.47;0.95;;;;;;;18.94;63.24;98533.41;4976031;28;20498;-63
2022/07/20 07:24:23;;;;;;;7.75;0.95;;;;;;;18.87;62.92;98527.84;4974613;28;20045;-63
2022/07/20 07:26:49;;;;;;;0.85;0.50;;;;;;;18.77;62.56;98525.88;4974752;28;20055;-63
2022/07/20 07:29:19;;;;;;;3.97;0.90;;;;;;;19.07;61.70;98520.44;4974679;28;20539;-63
2022/07/20 07:31:46;;;;;;;3.75;1.00;;;;;;;19.59;60.19;98519.25;4975075;28;20499;-64
2022/07/20 07:34:13;;;;;;;1.63;0.82;;;;;;;22.74;52.53;98501.44;4975284;28;20042;-64
2022/07/20 07:36:40;;;;;;;3.35;1.00;;;;;;;26.89;43.59;98495.31;4974565;28;20077;-64
2022/07/20 07:39:08;;;;;;;0.88;0.70;;;;;;;29.77;38.56;98491.75;4975096;28;20144;-64
2022/07/20 07:41:35;;;;;;;1.73;0.80;;;;;;;31.55;35.47;98496.78;4975076;28;20069;-65
2022/07/20 07:44:02;;;;;;;5.80;0.82;;;;;;;34.39;31.21;98480.59;4974816;28;20038;-65
2022/07/20 07:46:29;;;;;;;7.20;1.00;;;;;;;37.70;26.59;98486.41;4974829;28;20398;-66
2022/07/20 07:48:57;;;;;;;1.17;0.80;;;;;;;40.19;22.36;98474.09;4975212;28;20149;-64
2022/07/20 07:51:23;;;;;;;2.78;0.90;;;;;;;40.02;22.06;98476.53;4974454;28;20055;-65
2022/07/20 07:53:50;;;;;;;2.13;0.80;;;;;;;41.93;19.42;98471.88;4975000;28;20067;-67
2022/07/20 07:56:18;;;;;;;1.77;0.68;;;;;;;42.30;18.46;98475.09;4975341;28;20410;-66
2022/07/20 07:58:44;;;;;;;1.52;0.60;;;;;;;38.17;21.84;98469.53;4975433;28;20051;-65
2022/07/20 08:01:34;;;;;;;1.23;0.60;;;;;;;33.09;27.18;98458.47;4970899;28;20050;-65
2022/07/20 08:04:03;;;;;;;1.13;0.65;;;;;;;30.25;31.02;98455.22;4973739;28;20050;-66
2022/07/20 08:06:30;;;;;;;2.63;1.15;;;;;;;28.42;34.09;98443.47;4973699;28;20478;-65
2022/07/20 08:08:57;;;;;;;1.30;0.65;;;;;;;27.15;36.69;98445.31;4974745;28;20063;-65
2022/07/20 08:11:28;;;;;;;2.35;0.80;;;;;;;27.19;36.41;98437.41;4974726;28;20046;-64
2022/07/20 08:13:55;;;;;;;1.30;0.65;;;;;;;31.21;30.49;98434.31;4974831;28;20047;-64
2022/07/20 08:16:22;;;;;;;2.85;1.48;;;;;;;31.50;29.20;98437.13;4974269;28;20154;-64
2022/07/20 08:18:52;;;;;;;2.72;0.68;;;;;;;29.52;32.25;98449.19;4975050;28;20541;-64
2022/07/20 08:21:19;;;;;;;1.52;0.88;;;;;;;28.30;34.39;98430.91;4974945;28;20051;-64
2022/07/20 08:23:46;;;;;;;4.28;1.20;;;;;;;29.62;32.80;98424.94;4975087;28;20145;-64
2022/07/20 08:26:13;;;;;;;2.58;0.98;;;;;;;33.61;27.01;98423.75;4975770;28;20047;-66
2022/07/20 08:28:40;;;;;;;2.10;0.90;;;;;;;35.20;24.74;98417.72;4974410;28;20409;-66
2022/07/20 08:31:07;;;;;;;1.55;1.00;;;;;;;38.17;21.89;98425.97;4973578;28;20058;-66
2022/07/20 08:33:34;;;;;;;8.40;1.67;;;;;;;40.60;18.67;98424.69;4974385;28;20458;-65
2022/07/20 08:36:04;;;;;;;2.22;0.90;;;;;;;38.01;20.19;98429.84;4974360;28;20042;-65
2022/07/20 08:38:33;;;;;;;2.53;0.60;;;;;;;34.47;23.77;98423.91;4981505;28;20054;-65
2022/07/20 08:41:01;;;;;;;3.92;1.30;;;;;;;31.18;28.10;98432.44;4975991;28;20510;-65
2022/07/20 08:43:29;;;;;;;3.53;1.65;;;;;;;29.15;31.54;98433.44;4972680;28;20042;-65
2022/07/20 08:45:57;;;;;;;2.03;1.00;;;;;;;27.57;34.08;98432.16;4979619;28;20152;-65
2022/07/20 08:48:26;;;;;;;2.88;0.90;;;;;;;26.22;36.55;98432.25;4980153;28;20544;-65
2022/07/20 08:50:53;;;;;;;8.40;2.90;;;;;;;25.33;38.10;98435.81;4976107;28;20488;-65
2022/07/20 08:53:20;;;;;;;7.07;1.27;;;;;;;24.93;39.13;98435.47;4974976;28;20509;-65
2022/07/20 08:55:47;;;;;;;1.52;0.88;;;;;;;24.37;40.15;98422.19;4974358;28;20078;-65
2022/07/20 08:58:14;;;;;;;4.13;1.27;;;;;;;24.72;39.79;98429.69;4973935;28;20113;-65
2022/07/20 09:00:42;;;;;;;2.88;1.55;;;;;;;31.43;28.91;98423.16;4973261;28;20078;-65
2022/07/20 09:03:09;;;;;;;2.85;1.30;;;;;;;37.96;21.20;98427.78;4972068;28;20494;-66
2022/07/20 09:05:39;;;;;;;2.33;1.17;;;;;;;41.11;18.40;98423.78;4974565;28;20054;-65
2022/07/20 09:08:10;;;;;;;0.98;0.60;;;;;;;43.63;15.50;98427.00;4973231;28;20070;-65
2022/07/20 09:10:41;;;;;;;1.85;0.70;;;;;;;41.01;17.38;98425.63;4973127;28;20047;-65
2022/07/20 09:13:21;;;;;;;1.10;0.70;;;;;;;37.15;20.66;98428.78;4973719;28;20046;-64
2022/07/20 09:15:53;;;;;;;2.70;1.52;;;;;;;34.22;23.53;98425.63;4973143;28;20224;-65
2022/07/20 09:18:26;;;;;;;2.55;1.38;;;;;;;32.66;25.78;98432.88;4973303;28;20078;-65
2022/07/20 09:21:03;;;;;;;1.70;1.10;;;;;;;33.10;24.62;98422.56;4969077;28;20105;-65
2022/07/20 09:23:54;;;;;;;1.60;0.82;;;;;;;30.77;28.20;98424.94;4973884;28;20158;-66
2022/07/20 09:26:22;;;;;;;5.13;2.95;;;;;;;28.59;31.39;98430.41;4972662;28;20049;-65
2022/07/20 09:28:52;;;;;;;1.75;0.88;;;;;;;26.73;34.35;98436.41;4969127;28;20478;-65
2022/07/20 09:31:25;;;;;;;3.97;0.90;;;;;;;25.10;36.94;98433.28;4973507;28;20058;-63
2022/07/20 09:33:54;;;;;;;1.50;0.90;;;;;;;24.06;39.35;98432.44;4972901;28;20054;-64
2022/07/20 09:36:24;;;;;;;1.25;0.80;;;;;;;23.31;40.63;98435.69;4973157;28;20053;-66
2022/07/20 09:38:51;;;;;;;1.38;0.90;;;;;;;22.78;41.81;98427.63;4973372;28;20528;-63
2022/07/20 09:41:25;;;;;;;1.10;0.80;;;;;;;22.44;42.84;98424.34;4973423;28;20054;-63
2022/07/20 09:43:53;;;;;;;2.72;1.05;;;;;;;22.16;43.65;98414.41;4972220;28;20137;-68
2022/07/20 09:46:23;;;;;;;2.80;1.15;;;;;;;21.88;44.49;98420.69;4973268;28;20154;-67
2022/07/20 09:48:54;;;;;;;1.85;0.85;;;;;;;21.76;44.90;98412.03;4972840;28;20043;-68
2022/07/20 09:51:27;;;;;;;2.38;1.20;;;;;;;21.68;45.40;98411.34;4973074;28;20059;-68
2022/07/20 09:54:06;;;;;;;2.55;0.93;;;;;;;21.57;45.79;98402.25;4972704;28;20054;-69
2022/07/20 09:56:36;;;;;;;2.75;1.02;;;;;;;21.58;45.92;98401.81;4973290;28;20051;-68
2022/07/20 09:59:05;;;;;;;8.27;1.10;;;;;;;21.66;45.83;98396.81;4973106;28;20053;-68
2022/07/20 10:01:36;;;;;;;4.80;0.85;;;;;;;21.62;46.44;98396.88;4971854;28;20055;-74
2022/07/20 10:04:05;;;;;;;1.90;0.60;;;;;;;21.49;46.39;98387.41;4973168;28;20106;-73
2022/07/20 10:06:35;;;;;;;1.45;0.82;;;;;;;21.47;45.59;98389.09;4970169;28;20047;-74
2022/07/20 10:09:04;;;;;;;1.60;0.80;;;;;;;21.44;45.65;98378.66;4972874;28;20146;-75
2022/07/20 10:11:32;;;;;;;2.60;1.10;;;;;;;21.48;45.65;98379.38;4975990;28;20105;-76
2022/07/20 10:14:02;;;;;;;1.98;0.90;;;;;;;21.20;46.71;98380.69;4976376;28;20153;-73
2022/07/20 10:16:47;;;;;;;0.88;0.68;;;;;;;20.96;46.89;98387.56;4975936;28;20051;-72
2022/07/20 10:19:17;;;;;;;31.00;12.52;;;;;;;20.90;46.54;98391.31;4975872;28;20054;-72
2022/07/20 10:21:47;;;;;;;2.25;0.98;;;;;;;20.92;45.74;98386.81;4977233;28;20050;-72
2022/07/20 10:24:19;;;;;;;1.00;0.50;;;;;;;20.87;44.95;98378.03;4978097;28;20047;-74
2022/07/20 10:26:48;;;;;;;0.80;0.50;;;;;;;20.29;44.94;98370.84;4976840;28;20465;-73
2022/07/20 10:29:46;;;;;;;1.03;0.60;;;;;;;19.85;45.44;98371.81;4977214;28;20074;-74
2022/07/20 10:32:22;;;;;;;1.38;0.68;;;;;;;19.75;46.18;98367.09;4975394;28;20388;-74
2022/07/20 10:34:56;;;;;;;1.95;0.95;;;;;;;19.87;45.74;98363.69;4976058;28;20050;-74
2022/07/20 10:37:23;;;;;;;2.67;0.70;;;;;;;20.04;45.26;98352.63;4975588;28;20046;-74
2022/07/20 10:40:06;;;;;;;1.40;0.60;;;;;;;20.09;44.86;98343.66;4975612;28;20043;-74
2022/07/20 10:42:34;;;;;;;1.85;0.70;;;;;;;20.18;44.75;98349.59;4976591;28;20107;-74
2022/07/20 10:45:16;;;;;;;1.52;0.55;;;;;;;20.26;44.36;98337.00;4976305;28;20453;-72
2022/07/20 10:47:43;;;;;;;2.28;1.10;;;;;;;20.25;43.96;98336.19;4957269;29;20051;-73
2022/07/20 10:50:20;;;;;;;4.35;1.75;;;;;;;20.34;43.49;98344.16;4966923;28;20058;-74
2022/07/20 10:52:49;;;;;;;1.13;0.52;;;;;;;20.39;43.72;98335.16;4973991;28;20113;-78
2022/07/20 10:55:35;;;;;;;0.88;0.50;;;;;;;20.50;43.67;98335.81;4976074;28;20074;-75
2022/07/20 10:58:14;;;;;;;1.02;0.50;;;;;;;20.56;43.21;98331.28;4972971;28;20081;-74
2022/07/20 11:00:51;;;;;;;2.78;0.32;;;;;;;20.54;42.57;98337.34;4976066;28;20049;-76
2022/07/20 11:03:27;;;;;;;1.73;0.68;;;;;;;20.52;43.41;98324.91;4975532;28;20077;-75
2022/07/20 11:06:16;;;;;;;1.27;0.50;;;;;;;20.63;42.94;98322.69;4975193;28;20070;-75
2022/07/20 11:08:49;;;;;;;1.02;0.50;;;;;;;20.72;42.77;98320.13;4973509;28;20070;-75
2022/07/20 11:11:31;;;;;;;3.65;0.60;;;;;;;20.77;42.35;98319.63;4975603;28;20426;-76
2022/07/20 11:13:59;;;;;;;0.88;0.50;;;;;;;20.60;41.81;98334.88;4975781;28;20561;-76
2022/07/20 11:16:27;;;;;;;1.88;0.80;;;;;;;20.54;42.34;98336.56;4976706;28;20051;-76
2022/07/20 11:18:56;;;;;;;1.08;0.50;;;;;;;20.58;42.14;98338.13;4976314;28;20059;-75
2022/07/20 11:21:38;;;;;;;0.77;0.47;;;;;;;20.64;42.01;98332.78;4976166;28;20489;-65
2022/07/20 11:24:20;;;;;;;1.20;0.50;;;;;;;20.64;41.39;98327.94;4976025;28;20065;-66
2022/07/20 11:26:47;;;;;;;1.70;0.50;;;;;;;20.71;41.45;98329.81;4975803;28;20082;-65
2022/07/20 11:29:20;;;;;;;0.30;0.30;;;;;;;20.78;41.15;98329.72;4976024;28;20067;-66
2022/07/20 11:31:47;;;;;;;3.72;0.65;;;;;;;20.83;41.15;98337.69;4975785;28;20077;-66
2022/07/20 11:34:14;;;;;;;1.95;0.77;;;;;;;20.87;41.10;98344.09;4976029;28;20093;-65
2022/07/20 11:36:41;;;;;;;0.82;0.50;;;;;;;20.83;41.37;98340.50;4976037;28;20113;-66
2022/07/20 11:39:10;;;;;;;3.10;0.50;;;;;;;20.87;42.21;98338.44;4975733;28;20054;-66
2022/07/20 11:41:43;;;;;;;2.45;0.70;;;;;;;20.88;42.25;98340.03;4975915;28;20062;-65
2022/07/20 11:44:21;;;;;;;3.92;1.05;;;;;;;20.93;42.02;98333.91;4975536;28;20082;-65
2022/07/20 11:46:48;;;;;;;2.92;0.90;;;;;;;20.98;42.21;98337.06;4975503;28;20058;-66
2022/07/20 11:49:17;;;;;;;3.80;0.77;;;;;;;21.00;42.25;98330.97;4975650;28;20050;-65